sensor_id;sensor_type;location;lat;lon;timestamp;pressure;altitude;pressure_sealevel;temperature;humidity
75543;BME280;64129;53.508;10.476;2023-02-04T00:01:57;102261.84;;;3.03;82.14
75543;BME280;64129;53.508;10.476;2023-02-04T00:04:23;102265.91;;;3.20;82.05
75543;BME280;64129;53.508;10.476;2023-02-04T00:06:50;102270.38;;;2.96;81.63
75543;BME280;64129;53.508;10.476;2023-02-04T00:09:16;102270.38;;;2.96;81.67
75543;BME280;64129;53.508;10.476;2023-02-04T00:11:42;102271.47;;;3.02;81.81
75543;BME280;64129;53.508;10.476;2023-02-04T00:14:10;102282.75;;;3.00;82.09
75543;BME280;64129;53.508;10.476;2023-02-04T00:16:37;102283.25;;;3.15;82.10
75543;BME280;64129;53.508;10.476;2023-02-04T00:19:03;102290.56;;;3.25;82.28
75543;BME280;64129;53.508;10.476;2023-02-04T00:21:30;102302.56;;;3.17;82.23
75543;BME280;64129;53.508;10.476;2023-02-04T00:23:56;102304.78;;;3.05;81.98
75543;BME280;64129;53.508;10.476;2023-02-04T00:26:22;102318.22;;;3.14;82.71
75543;BME280;64129;53.508;10.476;2023-02-04T00:28:49;102321.47;;;3.07;82.06
75543;BME280;64129;53.508;10.476;2023-02-04T00:31:15;102328.50;;;3.08;82.44
75543;BME280;64129;53.508;10.476;2023-02-04T00:33:42;102336.59;;;3.14;82.00
75543;BME280;64129;53.508;10.476;2023-02-04T00:36:09;102342.47;;;3.07;82.12
75543;BME280;64129;53.508;10.476;2023-02-04T00:38:35;102341.94;;;3.17;82.09
75543;BME280;64129;53.508;10.476;2023-02-04T00:41:02;102359.91;;;3.05;82.49
75543;BME280;64129;53.508;10.476;2023-02-04T00:43:28;102365.16;;;3.05;82.48
75543;BME280;64129;53.508;10.476;2023-02-04T00:45:56;102365.53;;;3.16;82.69
75543;BME280;64129;53.508;10.476;2023-02-04T00:48:23;102376.47;;;3.04;82.91
75543;BME280;64129;53.508;10.476;2023-02-04T00:50:52;102387.03;;;3.05;82.39
75543;BME280;64129;53.508;10.476;2023-02-04T00:53:19;102381.53;;;3.23;82.75
75543;BME280;64129;53.508;10.476;2023-02-04T00:55:45;102394.41;;;3.16;82.90
75543;BME280;64129;53.508;10.476;2023-02-04T00:58:12;102404.00;;;3.15;83.19
75543;BME280;64129;53.508;10.476;2023-02-04T01:00:38;102406.28;;;3.06;83.52
75543;BME280;64129;53.508;10.476;2023-02-04T01:03:05;102413.81;;;3.21;82.83
75543;BME280;64129;53.508;10.476;2023-02-04T01:05:32;102424.75;;;3.34;82.99
75543;BME280;64129;53.508;10.476;2023-02-04T01:07:59;102422.88;;;3.30;83.33
75543;BME280;64129;53.508;10.476;2023-02-04T01:10:25;102435.50;;;3.42;82.92
75543;BME280;64129;53.508;10.476;2023-02-04T01:12:53;102443.13;;;3.34;83.05
75543;BME280;64129;53.508;10.476;2023-02-04T01:15:19;102457.22;;;3.36;83.35
75543;BME280;64129;53.508;10.476;2023-02-04T01:17:48;102452.16;;;3.42;82.94
75543;BME280;64129;53.508;10.476;2023-02-04T01:20:14;102461.81;;;3.43;82.39
75543;BME280;64129;53.508;10.476;2023-02-04T01:22:41;102470.78;;;3.49;83.24
75543;BME280;64129;53.508;10.476;2023-02-04T01:25:08;102479.41;;;3.46;82.36
75543;BME280;64129;53.508;10.476;2023-02-04T01:27:40;102485.56;;;3.47;83.02
75543;BME280;64129;53.508;10.476;2023-02-04T01:30:08;102489.41;;;3.56;82.94
75543;BME280;64129;53.508;10.476;2023-02-04T01:32:34;102502.25;;;3.47;83.08
75543;BME280;64129;53.508;10.476;2023-02-04T01:35:01;102498.88;;;3.51;83.07
75543;BME280;64129;53.508;10.476;2023-02-04T01:37:27;102511.22;;;3.28;83.27
75543;BME280;64129;53.508;10.476;2023-02-04T01:39:54;102511.81;;;3.47;83.19
75543;BME280;64129;53.508;10.476;2023-02-04T01:42:20;102519.09;;;3.28;82.91
75543;BME280;64129;53.508;10.476;2023-02-04T01:44:47;102522.00;;;3.37;83.55
75543;BME280;64129;53.508;10.476;2023-02-04T01:47:14;102518.34;;;3.32;82.91
75543;BME280;64129;53.508;10.476;2023-02-04T01:49:41;102516.66;;;3.34;83.12
75543;BME280;64129;53.508;10.476;2023-02-04T01:52:09;102513.19;;;3.35;83.12
75543;BME280;64129;53.508;10.476;2023-02-04T01:54:36;102539.56;;;3.38;82.75
75543;BME280;64129;53.508;10.476;2023-02-04T01:57:04;102542.91;;;3.34;82.91
75543;BME280;64129;53.508;10.476;2023-02-04T01:59:32;102533.22;;;3.08;82.83
75543;BME280;64129;53.508;10.476;2023-02-04T02:01:59;102536.16;;;3.16;82.24
75543;BME280;64129;53.508;10.476;2023-02-04T02:04:32;102539.56;;;3.13;82.94
75543;BME280;64129;53.508;10.476;2023-02-04T02:07:04;102541.03;;;3.06;82.78
75543;BME280;64129;53.508;10.476;2023-02-04T02:09:32;102551.91;;;3.16;82.16
75543;BME280;64129;53.508;10.476;2023-02-04T02:12:00;102559.81;;;3.17;81.47
75543;BME280;64129;53.508;10.476;2023-02-04T02:14:28;102554.13;;;3.05;81.62
75543;BME280;64129;53.508;10.476;2023-02-04T02:16:55;102566.28;;;3.03;81.42
75543;BME280;64129;53.508;10.476;2023-02-04T02:19:27;102562.38;;;2.92;81.28
75543;BME280;64129;53.508;10.476;2023-02-04T02:22:43;102576.13;;;2.85;81.75
75543;BME280;64129;53.508;10.476;2023-02-04T02:24:48;102577.63;;;2.78;82.15
75543;BME280;64129;53.508;10.476;2023-02-04T02:27:17;102580.31;;;2.79;82.22
75543;BME280;64129;53.508;10.476;2023-02-04T02:29:43;102573.75;;;2.68;82.21
75543;BME280;64129;53.508;10.476;2023-02-04T02:32:11;102589.34;;;2.65;82.21
75543;BME280;64129;53.508;10.476;2023-02-04T02:34:40;102610.22;;;2.62;81.79
75543;BME280;64129;53.508;10.476;2023-02-04T02:37:07;102608.75;;;2.46;82.46
75543;BME280;64129;53.508;10.476;2023-02-04T02:39:36;102616.00;;;2.54;82.13
75543;BME280;64129;53.508;10.476;2023-02-04T02:42:03;102619.66;;;2.57;82.40
75543;BME280;64129;53.508;10.476;2023-02-04T02:44:31;102615.00;;;2.50;82.18
75543;BME280;64129;53.508;10.476;2023-02-04T02:46:58;102623.72;;;2.49;82.12
75543;BME280;64129;53.508;10.476;2023-02-04T02:49:27;102633.94;;;2.43;82.10
75543;BME280;64129;53.508;10.476;2023-02-04T02:51:55;102635.59;;;2.41;81.66
75543;BME280;64129;53.508;10.476;2023-02-04T02:54:25;102638.94;;;2.37;81.61
75543;BME280;64129;53.508;10.476;2023-02-04T02:56:55;102642.25;;;2.33;81.28
75543;BME280;64129;53.508;10.476;2023-02-04T02:59:23;102652.13;;;2.17;81.49
75543;BME280;64129;53.508;10.476;2023-02-04T03:01:53;102655.19;;;2.07;81.57
75543;BME280;64129;53.508;10.476;2023-02-04T03:04:25;102652.66;;;2.09;81.80
75543;BME280;64129;53.508;10.476;2023-02-04T03:06:54;102664.03;;;2.09;81.58
75543;BME280;64129;53.508;10.476;2023-02-04T03:09:22;102664.03;;;2.09;81.38
75543;BME280;64129;53.508;10.476;2023-02-04T03:11:49;102676.56;;;2.16;80.85
75543;BME280;64129;53.508;10.476;2023-02-04T03:14:16;102673.34;;;2.03;81.08
75543;BME280;64129;53.508;10.476;2023-02-04T03:16:44;102689.34;;;2.09;81.53
75543;BME280;64129;53.508;10.476;2023-02-04T03:19:11;102695.72;;;2.15;81.56
75543;BME280;64129;53.508;10.476;2023-02-04T03:21:42;102693.59;;;2.07;82.14
75543;BME280;64129;53.508;10.476;2023-02-04T03:24:08;102702.44;;;2.09;82.24
75543;BME280;64129;53.508;10.476;2023-02-04T03:26:36;102709.25;;;2.05;82.33
75543;BME280;64129;53.508;10.476;2023-02-04T03:29:06;102723.47;;;2.10;82.39
75543;BME280;64129;53.508;10.476;2023-02-04T03:31:33;102730.56;;;2.13;82.29
75543;BME280;64129;53.508;10.476;2023-02-04T03:33:59;102729.66;;;2.12;82.37
75543;BME280;64129;53.508;10.476;2023-02-04T03:36:26;102734.03;;;2.12;82.84
75543;BME280;64129;53.508;10.476;2023-02-04T03:38:53;102742.19;;;2.19;82.91
75543;BME280;64129;53.508;10.476;2023-02-04T03:41:20;102751.66;;;2.16;82.46
75543;BME280;64129;53.508;10.476;2023-02-04T03:43:47;102756.59;;;2.08;82.46
75543;BME280;64129;53.508;10.476;2023-02-04T03:46:13;102763.31;;;2.03;82.32
75543;BME280;64129;53.508;10.476;2023-02-04T03:48:39;102759.72;;;2.01;82.82
75543;BME280;64129;53.508;10.476;2023-02-04T03:51:06;102760.69;;;2.03;82.78
75543;BME280;64129;53.508;10.476;2023-02-04T03:53:32;102768.50;;;2.02;82.65
75543;BME280;64129;53.508;10.476;2023-02-04T03:55:59;102769.81;;;1.92;82.92
75543;BME280;64129;53.508;10.476;2023-02-04T03:58:25;102786.56;;;1.96;82.25
75543;BME280;64129;53.508;10.476;2023-02-04T04:00:52;102793.41;;;1.92;82.81
75543;BME280;64129;53.508;10.476;2023-02-04T04:03:18;102799.59;;;1.94;83.36
75543;BME280;64129;53.508;10.476;2023-02-04T04:05:45;102806.75;;;1.98;83.22
75543;BME280;64129;53.508;10.476;2023-02-04T04:08:11;102826.44;;;1.88;83.62
75543;BME280;64129;53.508;10.476;2023-02-04T04:10:38;102826.00;;;1.99;83.56
75543;BME280;64129;53.508;10.476;2023-02-04T04:13:07;102839.03;;;1.97;83.07
75543;BME280;64129;53.508;10.476;2023-02-04T04:15:33;102839.16;;;2.00;83.04
75543;BME280;64129;53.508;10.476;2023-02-04T04:18:00;102846.72;;;2.12;82.78
75543;BME280;64129;53.508;10.476;2023-02-04T04:20:27;102860.28;;;2.03;83.27
75543;BME280;64129;53.508;10.476;2023-02-04T04:22:54;102865.56;;;2.05;83.11
75543;BME280;64129;53.508;10.476;2023-02-04T04:25:20;102869.16;;;2.07;83.20
75543;BME280;64129;53.508;10.476;2023-02-04T04:27:47;102867.59;;;1.91;81.89
75543;BME280;64129;53.508;10.476;2023-02-04T04:30:14;102879.50;;;2.04;82.78
75543;BME280;64129;53.508;10.476;2023-02-04T04:32:40;102879.84;;;1.92;82.14
75543;BME280;64129;53.508;10.476;2023-02-04T04:35:07;102876.53;;;1.96;82.85
75543;BME280;64129;53.508;10.476;2023-02-04T04:37:33;102874.88;;;1.98;82.67
75543;BME280;64129;53.508;10.476;2023-02-04T04:40:00;102869.78;;;2.01;82.51
75543;BME280;64129;53.508;10.476;2023-02-04T04:42:27;102870.06;;;2.07;82.32
75543;BME280;64129;53.508;10.476;2023-02-04T04:44:54;102876.81;;;2.02;82.75
75543;BME280;64129;53.508;10.476;2023-02-04T04:47:20;102881.38;;;2.06;83.18
75543;BME280;64129;53.508;10.476;2023-02-04T04:49:47;102877.72;;;2.03;83.01
75543;BME280;64129;53.508;10.476;2023-02-04T04:52:13;102877.19;;;2.10;82.55
75543;BME280;64129;53.508;10.476;2023-02-04T04:54:40;102879.38;;;2.01;82.38
75543;BME280;64129;53.508;10.476;2023-02-04T04:57:06;102891.44;;;1.97;81.90
75543;BME280;64129;53.508;10.476;2023-02-04T04:59:33;102892.69;;;1.86;81.55
75543;BME280;64129;53.508;10.476;2023-02-04T05:01:59;102888.41;;;1.88;82.18
75543;BME280;64129;53.508;10.476;2023-02-04T05:04:26;102894.19;;;1.81;81.78
75543;BME280;64129;53.508;10.476;2023-02-04T05:06:52;102898.31;;;1.76;81.31
75543;BME280;64129;53.508;10.476;2023-02-04T05:09:19;102899.50;;;1.65;81.52
75543;BME280;64129;53.508;10.476;2023-02-04T05:11:45;102897.72;;;1.64;81.73
75543;BME280;64129;53.508;10.476;2023-02-04T05:14:13;102898.75;;;1.67;81.32
75543;BME280;64129;53.508;10.476;2023-02-04T05:16:39;102894.00;;;1.59;81.33
75543;BME280;64129;53.508;10.476;2023-02-04T05:19:06;102904.31;;;1.55;81.85
75543;BME280;64129;53.508;10.476;2023-02-04T05:21:32;102904.19;;;1.52;81.12
75543;BME280;64129;53.508;10.476;2023-02-04T05:23:59;102911.06;;;1.50;81.68
75543;BME280;64129;53.508;10.476;2023-02-04T05:26:25;102922.25;;;1.30;81.73
75543;BME280;64129;53.508;10.476;2023-02-04T05:28:56;102936.47;;;1.17;82.01
75543;BME280;64129;53.508;10.476;2023-02-04T05:31:22;102939.16;;;1.19;81.72
75543;BME280;64129;53.508;10.476;2023-02-04T05:33:49;102939.16;;;1.19;81.88
75543;BME280;64129;53.508;10.476;2023-02-04T05:36:15;102951.13;;;1.14;81.49
75543;BME280;64129;53.508;10.476;2023-02-04T05:38:43;102951.13;;;1.14;81.27
75543;BME280;64129;53.508;10.476;2023-02-04T05:41:09;102954.19;;;1.05;81.71
75543;BME280;64129;53.508;10.476;2023-02-04T05:43:36;102960.25;;;1.04;81.46
75543;BME280;64129;53.508;10.476;2023-02-04T05:46:02;102956.97;;;0.92;81.31
75543;BME280;64129;53.508;10.476;2023-02-04T05:48:29;102969.06;;;0.90;81.78
75543;BME280;64129;53.508;10.476;2023-02-04T05:50:55;102975.72;;;0.83;82.10
75543;BME280;64129;53.508;10.476;2023-02-04T05:53:22;102981.84;;;0.84;81.78
75543;BME280;64129;53.508;10.476;2023-02-04T05:55:50;102989.44;;;0.79;82.04
75543;BME280;64129;53.508;10.476;2023-02-04T05:58:16;102992.88;;;0.78;81.59
75543;BME280;64129;53.508;10.476;2023-02-04T06:00:43;102996.47;;;0.80;82.33
75543;BME280;64129;53.508;10.476;2023-02-04T06:03:09;103007.91;;;0.82;81.76
75543;BME280;64129;53.508;10.476;2023-02-04T06:05:36;103010.53;;;0.82;82.14
75543;BME280;64129;53.508;10.476;2023-02-04T06:08:02;103006.19;;;0.83;82.21
75543;BME280;64129;53.508;10.476;2023-02-04T06:10:29;103012.66;;;0.89;82.09
75543;BME280;64129;53.508;10.476;2023-02-04T06:12:56;103014.94;;;0.83;81.77
75543;BME280;64129;53.508;10.476;2023-02-04T06:15:22;103018.13;;;0.78;81.53
75543;BME280;64129;53.508;10.476;2023-02-04T06:17:49;103015.28;;;0.73;81.58
75543;BME280;64129;53.508;10.476;2023-02-04T06:20:15;103024.56;;;0.68;81.75
75543;BME280;64129;53.508;10.476;2023-02-04T06:22:42;103034.94;;;0.67;81.81
75543;BME280;64129;53.508;10.476;2023-02-04T06:25:08;103038.47;;;0.67;81.73
75543;BME280;64129;53.508;10.476;2023-02-04T06:27:35;103039.13;;;0.63;81.45
75543;BME280;64129;53.508;10.476;2023-02-04T06:30:01;103041.72;;;0.63;81.64
75543;BME280;64129;53.508;10.476;2023-02-04T06:32:28;103046.63;;;0.57;81.72
75543;BME280;64129;53.508;10.476;2023-02-04T06:34:54;103051.78;;;0.55;81.99
75543;BME280;64129;53.508;10.476;2023-02-04T06:37:21;103051.63;;;0.52;81.94
75543;BME280;64129;53.508;10.476;2023-02-04T06:39:49;103067.13;;;0.49;81.86
75543;BME280;64129;53.508;10.476;2023-02-04T06:42:15;103072.03;;;0.43;82.16
75543;BME280;64129;53.508;10.476;2023-02-04T06:44:42;103062.66;;;0.47;82.29
75543;BME280;64129;53.508;10.476;2023-02-04T06:47:09;103066.06;;;0.46;82.19
75543;BME280;64129;53.508;10.476;2023-02-04T06:49:35;103076.53;;;0.46;82.13
75543;BME280;64129;53.508;10.476;2023-02-04T06:52:02;103089.53;;;0.44;82.00
75543;BME280;64129;53.508;10.476;2023-02-04T06:54:28;103085.84;;;0.41;82.09
75543;BME280;64129;53.508;10.476;2023-02-04T06:56:54;103097.84;;;0.37;82.61
75543;BME280;64129;53.508;10.476;2023-02-04T06:59:21;103093.50;;;0.38;82.20
75543;BME280;64129;53.508;10.476;2023-02-04T07:01:48;103093.69;;;0.41;81.72
75543;BME280;64129;53.508;10.476;2023-02-04T07:04:15;103100.53;;;0.39;82.27
75543;BME280;64129;53.508;10.476;2023-02-04T07:06:41;103110.63;;;0.32;82.48
75543;BME280;64129;53.508;10.476;2023-02-04T07:09:08;103110.28;;;0.26;82.91
75543;BME280;64129;53.508;10.476;2023-02-04T07:11:34;103122.88;;;0.34;82.92
75543;BME280;64129;53.508;10.476;2023-02-04T07:14:01;103119.72;;;0.39;82.89
75543;BME280;64129;53.508;10.476;2023-02-04T07:16:27;103117.63;;;0.34;82.78
75543;BME280;64129;53.508;10.476;2023-02-04T07:18:54;103117.63;;;0.34;83.19
75543;BME280;64129;53.508;10.476;2023-02-04T07:21:20;103120.22;;;0.17;84.29
75543;BME280;64129;53.508;10.476;2023-02-04T07:23:47;103133.72;;;0.25;84.36
75543;BME280;64129;53.508;10.476;2023-02-04T07:26:13;103145.56;;;0.35;84.25
75543;BME280;64129;53.508;10.476;2023-02-04T07:28:40;103142.78;;;0.31;83.89
75543;BME280;64129;53.508;10.476;2023-02-04T07:31:07;103151.19;;;0.41;84.04
75543;BME280;64129;53.508;10.476;2023-02-04T07:33:34;103153.63;;;0.38;83.63
75543;BME280;64129;53.508;10.476;2023-02-04T07:36:00;103148.41;;;0.38;84.14
75543;BME280;64129;53.508;10.476;2023-02-04T07:38:27;103165.41;;;0.46;83.51
75543;BME280;64129;53.508;10.476;2023-02-04T07:40:53;103160.91;;;0.43;83.93
75543;BME280;64129;53.508;10.476;2023-02-04T07:43:20;103164.00;;;0.36;84.16
75543;BME280;64129;53.508;10.476;2023-02-04T07:45:47;103163.94;;;0.51;83.74
75543;BME280;64129;53.508;10.476;2023-02-04T07:48:13;103171.78;;;0.51;83.85
75543;BME280;64129;53.508;10.476;2023-02-04T07:50:40;103181.13;;;0.62;83.63
75543;BME280;64129;53.508;10.476;2023-02-04T07:53:06;103180.66;;;0.69;83.40
75543;BME280;64129;53.508;10.476;2023-02-04T07:55:33;103187.72;;;0.70;82.81
75543;BME280;64129;53.508;10.476;2023-02-04T07:57:59;103176.44;;;0.71;83.12
75543;BME280;64129;53.508;10.476;2023-02-04T08:00:26;103193.28;;;0.76;82.86
75543;BME280;64129;53.508;10.476;2023-02-04T08:02:52;103198.69;;;0.79;83.10
75543;BME280;64129;53.508;10.476;2023-02-04T08:05:19;103194.84;;;0.89;83.02
75543;BME280;64129;53.508;10.476;2023-02-04T08:07:45;103198.22;;;1.03;82.90
75543;BME280;64129;53.508;10.476;2023-02-04T08:10:12;103196.25;;;0.99;82.56
75543;BME280;64129;53.508;10.476;2023-02-04T08:12:38;103190.88;;;1.12;83.10
75543;BME280;64129;53.508;10.476;2023-02-04T08:15:05;103196.94;;;1.27;82.83
75543;BME280;64129;53.508;10.476;2023-02-04T08:17:34;103192.63;;;1.44;82.16
75543;BME280;64129;53.508;10.476;2023-02-04T08:20:01;103204.63;;;1.56;81.48
75543;BME280;64129;53.508;10.476;2023-02-04T08:22:27;103203.81;;;1.74;82.05
75543;BME280;64129;53.508;10.476;2023-02-04T08:24:54;103204.59;;;1.89;81.91
75543;BME280;64129;53.508;10.476;2023-02-04T08:27:21;103198.00;;;2.13;81.48
75543;BME280;64129;53.508;10.476;2023-02-04T08:29:47;103203.69;;;2.23;81.03
75543;BME280;64129;53.508;10.476;2023-02-04T08:32:14;103204.50;;;2.22;80.34
75543;BME280;64129;53.508;10.476;2023-02-04T08:34:41;103211.03;;;2.30;79.90
75543;BME280;64129;53.508;10.476;2023-02-04T08:37:09;103215.75;;;2.37;79.42
75543;BME280;64129;53.508;10.476;2023-02-04T08:39:35;103214.28;;;2.60;79.45
75543;BME280;64129;53.508;10.476;2023-02-04T08:42:02;103215.47;;;2.66;78.51
75543;BME280;64129;53.508;10.476;2023-02-04T08:44:28;103210.66;;;2.93;77.92
75543;BME280;64129;53.508;10.476;2023-02-04T08:46:55;103225.78;;;2.99;77.40
75543;BME280;64129;53.508;10.476;2023-02-04T08:49:21;103222.09;;;3.13;77.43
75543;BME280;64129;53.508;10.476;2023-02-04T08:51:48;103230.47;;;3.43;76.89
75543;BME280;64129;53.508;10.476;2023-02-04T08:54:14;103222.53;;;3.22;76.92
75543;BME280;64129;53.508;10.476;2023-02-04T08:56:41;103231.38;;;3.43;75.83
75543;BME280;64129;53.508;10.476;2023-02-04T08:59:07;103232.72;;;3.53;75.97
75543;BME280;64129;53.508;10.476;2023-02-04T09:01:34;103224.63;;;3.49;75.68
75543;BME280;64129;53.508;10.476;2023-02-04T09:04:00;103243.69;;;3.83;75.23
75543;BME280;64129;53.508;10.476;2023-02-04T09:06:27;103237.81;;;5.85;68.05
75543;BME280;64129;53.508;10.476;2023-02-04T09:08:53;103235.38;;;3.93;73.01
75543;BME280;64129;53.508;10.476;2023-02-04T09:11:20;103240.84;;;3.40;75.32
75543;BME280;64129;53.508;10.476;2023-02-04T09:13:46;103246.00;;;3.19;76.70
75543;BME280;64129;53.508;10.476;2023-02-04T09:16:13;103256.41;;;3.74;75.85
75543;BME280;64129;53.508;10.476;2023-02-04T09:18:39;103260.91;;;3.96;74.15
75543;BME280;64129;53.508;10.476;2023-02-04T09:21:06;103256.13;;;4.27;73.78
75543;BME280;64129;53.508;10.476;2023-02-04T09:23:32;103268.13;;;4.83;72.26
75543;BME280;64129;53.508;10.476;2023-02-04T09:25:59;103265.16;;;4.53;71.51
75543;BME280;64129;53.508;10.476;2023-02-04T09:28:26;103277.91;;;4.86;72.54
75543;BME280;64129;53.508;10.476;2023-02-04T09:30:53;103272.63;;;5.08;71.29
75543;BME280;64129;53.508;10.476;2023-02-04T09:33:19;103277.94;;;5.30;nan
75543;BME280;64129;53.508;10.476;2023-02-04T09:35:46;103287.19;;;5.66;71.43
75543;BME280;64129;53.508;10.476;2023-02-04T09:38:12;103281.25;;;5.49;69.96
75543;BME280;64129;53.508;10.476;2023-02-04T09:40:46;103278.78;;;5.53;69.67
75543;BME280;64129;53.508;10.476;2023-02-04T09:43:21;103283.59;;;5.87;68.75
75543;BME280;64129;53.508;10.476;2023-02-04T09:45:51;103279.44;;;6.18;68.09
75543;BME280;64129;53.508;10.476;2023-02-04T09:48:20;103280.09;;;6.36;66.87
75543;BME280;64129;53.508;10.476;2023-02-04T09:50:48;103288.41;;;6.23;66.42
75543;BME280;64129;53.508;10.476;2023-02-04T09:53:21;103297.38;;;6.03;66.56
75543;BME280;64129;53.508;10.476;2023-02-04T09:55:50;103288.22;;;6.68;65.98
75543;BME280;64129;53.508;10.476;2023-02-04T09:58:19;103289.22;;;6.71;65.86
75543;BME280;64129;53.508;10.476;2023-02-04T10:00:53;103291.59;;;6.38;64.45
75543;BME280;64129;53.508;10.476;2023-02-04T10:03:21;103282.63;;;7.12;63.57
75543;BME280;64129;53.508;10.476;2023-02-04T10:05:49;103300.34;;;6.88;63.90
75543;BME280;64129;53.508;10.476;2023-02-04T10:08:19;103290.41;;;6.05;64.85
75543;BME280;64129;53.508;10.476;2023-02-04T10:10:47;103297.94;;;5.94;68.24
75543;BME280;64129;53.508;10.476;2023-02-04T10:13:20;103296.78;;;6.87;65.86
75543;BME280;64129;53.508;10.476;2023-02-04T10:15:49;103298.16;;;7.02;63.86
75543;BME280;64129;53.508;10.476;2023-02-04T10:18:24;103311.66;;;6.58;64.79
75543;BME280;64129;53.508;10.476;2023-02-04T10:20:59;103305.94;;;6.97;62.53
75543;BME280;64129;53.508;10.476;2023-02-04T10:23:31;103309.09;;;7.14;61.66
75543;BME280;64129;53.508;10.476;2023-02-04T10:25:58;103302.94;;;7.13;62.05
75543;BME280;64129;53.508;10.476;2023-02-04T10:28:37;103302.13;;;8.03;61.06
75543;BME280;64129;53.508;10.476;2023-02-04T10:31:06;103300.19;;;7.67;62.05
75543;BME280;64129;53.508;10.476;2023-02-04T10:36:30;103305.72;;;7.46;60.61
75543;BME280;64129;53.508;10.476;2023-02-04T10:41:47;103308.59;;;7.54;56.99
75543;BME280;64129;53.508;10.476;2023-02-04T10:44:23;103308.81;;;8.53;57.61
75543;BME280;64129;53.508;10.476;2023-02-04T10:47:01;103312.38;;;7.92;56.76
75543;BME280;64129;53.508;10.476;2023-02-04T10:49:29;103317.34;;;8.76;57.53
75543;BME280;64129;53.508;10.476;2023-02-04T10:51:56;103317.13;;;9.39;55.49
75543;BME280;64129;53.508;10.476;2023-02-04T10:54:36;103318.69;;;9.31;54.54
75543;BME280;64129;53.508;10.476;2023-02-04T10:57:13;103326.59;;;9.68;51.99
75543;BME280;64129;53.508;10.476;2023-02-04T10:59:43;103323.59;;;9.94;51.59
75543;BME280;64129;53.508;10.476;2023-02-04T11:02:40;103326.66;;;9.32;51.95
75543;BME280;64129;53.508;10.476;2023-02-04T11:05:19;103324.22;;;9.81;53.79
75543;BME280;64129;53.508;10.476;2023-02-04T11:07:47;103328.06;;;9.96;52.11
75543;BME280;64129;53.508;10.476;2023-02-04T11:10:22;103321.28;;;9.68;52.36
75543;BME280;64129;53.508;10.476;2023-02-04T11:18:23;103311.97;;;10.29;50.68
75543;BME280;64129;53.508;10.476;2023-02-04T11:20:54;103310.72;;;10.59;50.02
75543;BME280;64129;53.508;10.476;2023-02-04T11:26:04;103314.50;;;10.23;49.85
75543;BME280;64129;53.508;10.476;2023-02-04T11:28:54;103312.81;;;10.28;49.42
75543;BME280;64129;53.508;10.476;2023-02-04T11:33:49;103318.50;;;11.57;48.00
75543;BME280;64129;53.508;10.476;2023-02-04T11:36:28;103320.41;;;11.67;48.42
75543;BME280;64129;53.508;10.476;2023-02-04T11:38:55;103316.47;;;10.83;49.12
75543;BME280;64129;53.508;10.476;2023-02-04T11:41:25;103321.03;;;9.98;47.50
75543;BME280;64129;53.508;10.476;2023-02-04T11:43:53;103317.09;;;10.20;47.57
75543;BME280;64129;53.508;10.476;2023-02-04T11:46:20;103318.78;;;10.63;47.75
75543;BME280;64129;53.508;10.476;2023-02-04T11:48:57;103327.09;;;9.51;50.70
75543;BME280;64129;53.508;10.476;2023-02-04T11:51:33;103333.59;;;9.65;48.64
75543;BME280;64129;53.508;10.476;2023-02-04T11:53:59;103327.84;;;10.26;49.23
75543;BME280;64129;53.508;10.476;2023-02-04T11:56:27;103336.22;;;9.63;50.53
75543;BME280;64129;53.508;10.476;2023-02-04T11:58:56;103334.88;;;8.38;53.01
75543;BME280;64129;53.508;10.476;2023-02-04T12:01:29;103337.19;;;7.66;54.81
75543;BME280;64129;53.508;10.476;2023-02-04T12:03:58;103336.56;;;7.46;54.27
75543;BME280;64129;53.508;10.476;2023-02-04T12:06:31;103344.25;;;7.67;54.85
75543;BME280;64129;53.508;10.476;2023-02-04T12:09:27;103352.38;;;6.16;57.42
75543;BME280;64129;53.508;10.476;2023-02-04T12:11:54;103348.22;;;6.97;56.76
75543;BME280;64129;53.508;10.476;2023-02-04T12:14:20;103353.28;;;7.73;55.49
75543;BME280;64129;53.508;10.476;2023-02-04T12:16:49;103354.53;;;6.51;56.45
75543;BME280;64129;53.508;10.476;2023-02-04T12:19:22;103352.53;;;6.44;58.26
75543;BME280;64129;53.508;10.476;2023-02-04T12:21:48;103357.25;;;6.05;57.68
75543;BME280;64129;53.508;10.476;2023-02-04T12:24:15;103355.84;;;6.15;58.80
75543;BME280;64129;53.508;10.476;2023-02-04T12:26:41;103363.50;;;7.07;57.95
75543;BME280;64129;53.508;10.476;2023-02-04T12:29:08;103355.41;;;8.80;52.91
75543;BME280;64129;53.508;10.476;2023-02-04T12:31:34;103346.78;;;9.23;50.15
75543;BME280;64129;53.508;10.476;2023-02-04T12:34:01;103363.28;;;9.47;50.82
75543;BME280;64129;53.508;10.476;2023-02-04T12:36:27;103364.22;;;9.90;49.64
75543;BME280;64129;53.508;10.476;2023-02-04T12:38:56;103358.81;;;10.26;45.97
75543;BME280;64129;53.508;10.476;2023-02-04T12:41:24;103360.31;;;10.57;47.08
75543;BME280;64129;53.508;10.476;2023-02-04T12:43:51;103363.47;;;10.38;46.02
75543;BME280;64129;53.508;10.476;2023-02-04T12:46:20;103361.59;;;9.91;46.27
75543;BME280;64129;53.508;10.476;2023-02-04T12:48:46;103350.63;;;10.60;45.45
75543;BME280;64129;53.508;10.476;2023-02-04T12:51:13;103361.44;;;10.24;44.20
75543;BME280;64129;53.508;10.476;2023-02-04T12:53:39;103360.31;;;11.66;43.96
75543;BME280;64129;53.508;10.476;2023-02-04T12:56:06;103365.78;;;10.66;43.77
75543;BME280;64129;53.508;10.476;2023-02-04T12:58:32;103361.94;;;10.99;43.21
75543;BME280;64129;53.508;10.476;2023-02-04T13:00:59;103361.34;;;10.65;43.09
75543;BME280;64129;53.508;10.476;2023-02-04T13:03:27;103369.66;;;11.98;43.23
75543;BME280;64129;53.508;10.476;2023-02-04T13:05:53;103370.13;;;11.11;42.10
75543;BME280;64129;53.508;10.476;2023-02-04T13:08:20;103373.88;;;11.23;43.26
75543;BME280;64129;53.508;10.476;2023-02-04T13:10:46;103377.28;;;11.15;42.54